To NAV CANADA Home Page Login to a new session Search on AWWS site Disclaimer Vers la page française équivalente Tips FAQ What's new on the site To the Forecasts and Observations / NOTAM section To "File a Flight Plan" website Publications and other links Update of the User's profile FIC Telephone Numbers My Weather Data Folder Route Weather Data Regional Weather Data Local Weather Data To the Forecasts and Observations / NOTAM section
Request Generated 11/16/2018 at 20:58:57 UTC . Weather information available at that time is displayed.

METAR/TAF

If you find any discrepancies between the coded METAR/TAF and the plain language METAR/TAF please use the coded METAR/TAF. LWIS bulletins are not decoded in plain language.

TORONTO/LESTER B. PEARSON INTL/ON    

METAR CYYZ 162000Z 25015G23KT 15SM OVC019 02/M01 A2972 RMK SC8 SLP071=
METAR
LOCATION
CYYZ - TORONTO/LESTER B. PEARSON INTL/ON
DATE - TIME
16 NOVEMBER 2018 - 2000 UTC
WIND
250 TRUE @ 15  KNOTS
GUSTS
23 KNOTS
VISIBILITY
15 STAT.  MILES
RUNWAY VISUAL RANGE
WEATHER
CLOUDINESS
OVERCAST 1900  FT
TEMP / DEWPOINT
2 C / -1 C
ALTIMETER
29.72 IN HG
RECENT WEATHER
WIND SHEAR

METAR CYYZ 161900Z 27016G23KT 15SM OVC020 02/00 A2970 RMK SC8 SLP064=
METAR
LOCATION
CYYZ - TORONTO/LESTER B. PEARSON INTL/ON
DATE - TIME
16 NOVEMBER 2018 - 1900 UTC
WIND
270 TRUE @ 16  KNOTS
GUSTS
23 KNOTS
VISIBILITY
15 STAT.  MILES
RUNWAY VISUAL RANGE
WEATHER
CLOUDINESS
OVERCAST 2000  FT
TEMP / DEWPOINT
2 C / 0 C
ALTIMETER
29.70 IN HG
RECENT WEATHER
WIND SHEAR

METAR CYYZ 161800Z CCA 26020KT 15SM FEW018 SCT055 OVC085 02/01 A2968 RMK SF2SC1 5 SLP060=
METAR
LOCATION
CYYZ - TORONTO/LESTER B. PEARSON INTL/ON
DATE - TIME
16 NOVEMBER 2018 - 1800 UTC
WIND
260 TRUE @ 20  KNOTS
VISIBILITY
15 STAT.  MILES
RUNWAY VISUAL RANGE
WEATHER
CLOUDINESS
FEW CLOUDS (1/8 - 2/8) 1800  FT
SCATTERED CLOUDS (3/8 - 4/8) 5500  FT
OVERCAST 8500  FT
TEMP / DEWPOINT
2 C / 1 C
ALTIMETER
29.68 IN HG
RECENT WEATHER
WIND SHEAR

METAR CYYZ 161800Z 26020KT 15SM FEW018 SCT055 OVC085 02/01 A2968 RMK SF2SC1AS5 P060=
METAR
LOCATION
CYYZ - TORONTO/LESTER B. PEARSON INTL/ON
DATE - TIME
16 NOVEMBER 2018 - 1800 UTC
WIND
260 TRUE @ 20  KNOTS
VISIBILITY
15 STAT.  MILES
RUNWAY VISUAL RANGE
WEATHER
CLOUDINESS
FEW CLOUDS (1/8 - 2/8) 1800  FT
SCATTERED CLOUDS (3/8 - 4/8) 5500  FT
OVERCAST 8500  FT
TEMP / DEWPOINT
2 C / 1 C
ALTIMETER
29.68 IN HG
RECENT WEATHER
WIND SHEAR

TAF CYYZ 162040Z 1621/1724 25013G23KT P6SM OVC020 TEMPO 1621/1704 BKN025 OVC040 BECMG 1700/1702 25012KT FM170400 27012KT P6SM BKN030 BECMG 1713/1715 28012G22KT BECMG 1719/1721 32015KT FM172300 30012KT P6SM FEW030 RMK NXT FCST BY 170000Z=
TAF
LOCATION

CYYZ - TORONTO/LESTER B. PEARSON INTL/ON
VALIDITY [UTC]
16 NOV - 2040 to
18 NOV - 0000
 
TIMES
[UTC]
WIND
[DEGREES TRUE]
VISIBILITY
[STAT. MILES]
WEATHER
CLOUDINESS
[FEET AGL]
 
16 NOV - 2100 to
17 NOV - 0400
250 @ 13 KNOTS
GUSTS 23 KNOTS
6+
NIL
2000 OVERCAST
TEMPORARY CHANGES
16 NOV - 2100 to
17 NOV - 0400
 
 
 
2500 BROKEN
4000 OVERCAST
BECOMING
17 NOV - 0000 to
17 NOV - 0200
250 @ 12 KNOTS
 
 
 
 
17 NOV - 0400 to
17 NOV - 2300
270 @ 12 KNOTS
6+
NIL
3000 BROKEN
BECOMING
17 NOV - 1300 to
17 NOV - 1500
280 @ 12 KNOTS
GUSTS 22 KNOTS
 
 
 
BECOMING
17 NOV - 1900 to
17 NOV - 2100
320 @ 15 KNOTS
 
 
 
 
17 NOV - 2300 to
18 NOV - 0000
300 @ 12 KNOTS
6+
NIL
3000 FEW
REMARKS
THE NEXT FORECAST WILL BE ISSUED BY 0000 UTC ON DAY 17


Your time UTC time
Weather data provided by Environment Canada and NAV CANADA